Time;durP1;ratioP1;P1;durP2;ratioP2;P2;SDS_P1;SDS_P2;PMS_P1;PMS_P2;Temp;Humidity;BMP_temperature;BMP_pressure;BME280_temperature;BME280_humidity;BME280_pressure;Samples;Min_cycle;Max_cycle;Signal;HPM_P1;HPM_P2
2023/05/07 00:02:26;;;;;;;1.23;1.13;;;;;;;;;;5074869;28;20199;-71
2023/05/07 00:04:53;;;;;;;1.08;0.98;;;;;;;;;;5074546;28;20611;-67
2023/05/07 00:07:20;;;;;;;2.97;1.23;;;;;;;;;;5074783;28;20207;-66
2023/05/07 00:09:47;;;;;;;2.57;1.50;;;;;;;;;;5074443;28;20205;-68
2023/05/07 00:12:15;;;;;;;1.45;1.25;;;;;;;;;;5074568;28;20207;-66
2023/05/07 00:14:42;;;;;;;1.97;1.17;;;;;;;;;;5074313;28;20203;-71
2023/05/07 00:17:09;;;;;;;1.45;1.17;;;;;;;;;;5074113;28;20203;-71
2023/05/07 00:19:36;;;;;;;2.00;1.17;;;;;;;;;;5074189;28;20648;-67
2023/05/07 00:22:03;;;;;;;2.47;1.37;;;;;;;;;;5074303;28;20203;-67
2023/05/07 00:24:30;;;;;;;1.23;1.13;;;;;;;;;;5074394;28;20199;-69
2023/05/07 00:26:57;;;;;;;1.83;1.20;;;;;;;;;;5074393;28;20208;-68
2023/05/07 00:29:25;;;;;;;2.33;1.27;;;;;;;;;;5074104;28;20214;-65
2023/05/07 00:31:54;;;;;;;2.47;1.48;;;;;;;;;;5106633;28;20214;-66
2023/05/07 00:34:22;;;;;;;3.30;1.27;;;;;;;;;;5073029;28;20660;-70
2023/05/07 00:36:50;;;;;;;2.38;1.60;;;;;;;;;;5071581;28;20203;-67
2023/05/07 00:39:16;;;;;;;1.70;1.38;;;;;;;;;;5072163;28;20768;-69
2023/05/07 00:41:44;;;;;;;2.07;1.30;;;;;;;;;;5027506;28;1299039;-64
2023/05/07 00:44:11;;;;;;;6.23;1.57;;;;;;;;;;5105805;28;20321;-67
2023/05/07 00:46:38;;;;;;;3.17;1.60;;;;;;;;;;5073270;28;20207;-64
2023/05/07 00:49:05;;;;;;;3.20;1.10;;;;;;;;;;5072848;28;20215;-67
2023/05/07 00:51:33;;;;;;;1.40;0.97;;;;;;;;;;5072881;28;20268;-67
2023/05/07 00:54:02;;;;;;;1.30;1.20;;;;;;;;;;5072774;28;20829;-66
2023/05/07 00:56:30;;;;;;;2.03;1.02;;;;;;;;;;5073749;28;20252;-67
2023/05/07 00:58:57;;;;;;;1.20;1.02;;;;;;;;;;5073639;28;20258;-65
2023/05/07 01:01:24;;;;;;;1.60;1.40;;;;;;;;;;5074467;28;20664;-67
2023/05/07 01:03:51;;;;;;;1.50;1.23;;;;;;;;;;5074310;28;20199;-66
2023/05/07 01:06:21;;;;;;;1.37;1.03;;;;;;;;;;5073161;28;20203;-66
2023/05/07 01:08:50;;;;;;;2.70;1.57;;;;;;;;;;5074467;28;20245;-65
2023/05/07 01:11:20;;;;;;;2.20;1.27;;;;;;;;;;5074368;28;20241;-69
2023/05/07 01:13:47;;;;;;;1.55;1.10;;;;;;;;;;5073288;28;20286;-66
2023/05/07 01:16:15;;;;;;;0.97;0.83;;;;;;;;;;5076213;28;20264;-68
2023/05/07 01:18:42;;;;;;;1.65;1.20;;;;;;;;;;5093217;28;20837;-66
2023/05/07 01:21:11;;;;;;;1.77;1.33;;;;;;;;;;5076796;28;20202;-71
2023/05/07 01:23:38;;;;;;;1.92;0.90;;;;;;;;;;5094490;28;20241;-66
2023/05/07 01:26:05;;;;;;;1.35;1.13;;;;;;;;;;5093198;28;20226;-67
2023/05/07 01:28:33;;;;;;;1.15;1.02;;;;;;;;;;5093056;28;20245;-66
2023/05/07 01:31:03;;;;;;;1.13;1.03;;;;;;;;;;5093185;28;20206;-66
2023/05/07 01:33:33;;;;;;;1.67;1.10;;;;;;;;;;5093406;28;20202;-71
2023/05/07 01:36:03;;;;;;;2.13;1.30;;;;;;;;;;5094180;28;20199;-65
2023/05/07 01:38:30;;;;;;;1.40;1.00;;;;;;;;;;5076372;28;20250;-64
2023/05/07 01:40:58;;;;;;;1.93;1.47;;;;;;;;;;5093261;28;20234;-66
2023/05/07 01:43:25;;;;;;;1.40;1.23;;;;;;;;;;5075962;28;20203;-67
2023/05/07 01:45:52;;;;;;;1.77;1.23;;;;;;;;;;5093035;28;20199;-68
2023/05/07 01:48:20;;;;;;;1.10;1.00;;;;;;;;;;5092774;28;20301;-68
2023/05/07 01:50:47;;;;;;;1.63;1.20;;;;;;;;;;5092792;28;20207;-65
2023/05/07 01:53:14;;;;;;;1.88;1.20;;;;;;;;;;5075972;28;20202;-66
2023/05/07 01:55:42;;;;;;;1.23;1.08;;;;;;;;;;5092655;28;20210;-67
2023/05/07 01:58:10;;;;;;;1.43;1.00;;;;;;;;;;5092481;28;20275;-68
2023/05/07 02:00:39;;;;;;;1.50;1.13;;;;;;;;;;5092748;28;20201;-68
2023/05/07 02:03:07;;;;;;;1.80;1.10;;;;;;;;;;5092783;28;20655;-66
2023/05/07 02:05:49;;;;;;;2.07;1.03;;;;;;;;;;5092568;28;20263;-67
2023/05/07 02:08:27;;;;;;;1.40;1.30;;;;;;;;;;5092328;28;20202;-70
2023/05/07 02:10:55;;;;;;;1.63;1.10;;;;;;;;;;5092749;28;20262;-67
2023/05/07 02:13:22;;;;;;;2.57;1.10;;;;;;;;;;5094043;28;20203;-69
2023/05/07 02:15:50;;;;;;;1.13;0.90;;;;;;;;;;5092587;28;20213;-68
2023/05/07 02:18:18;;;;;;;1.05;0.98;;;;;;;;;;5093504;28;20332;-66
2023/05/07 02:20:45;;;;;;;1.20;0.97;;;;;;;;;;5092560;28;20209;-65
2023/05/07 02:23:12;;;;;;;1.13;1.02;;;;;;;;;;5091996;28;20213;-68
2023/05/07 02:25:40;;;;;;;2.57;1.33;;;;;;;;;;5092042;28;20663;-69
2023/05/07 02:28:07;;;;;;;1.43;1.20;;;;;;;;;;5092035;28;20202;-70
2023/05/07 02:30:59;;;;;;;1.02;0.90;;;;;;;;;;5091688;28;20671;-67
2023/05/07 02:33:27;;;;;;;1.73;1.10;;;;;;;;;;5091606;28;20190;-65
2023/05/07 02:35:56;;;;;;;2.13;0.93;;;;;;;;;;5092061;28;20205;-68
2023/05/07 02:38:23;;;;;;;1.60;1.17;;;;;;;;;;5091784;28;20597;-69
2023/05/07 02:40:50;;;;;;;1.13;1.00;;;;;;;;;;5093000;28;20227;-71
2023/05/07 02:43:17;;;;;;;1.98;1.40;;;;;;;;;;5093165;28;20206;-69
2023/05/07 02:45:47;;;;;;;1.58;1.10;;;;;;;;;;5091871;28;20205;-67
2023/05/07 02:48:15;;;;;;;1.20;1.10;;;;;;;;;;5091930;28;20203;-65
2023/05/07 02:50:42;;;;;;;1.90;1.10;;;;;;;;;;5091720;28;20695;-66
2023/05/07 02:53:12;;;;;;;1.27;1.17;;;;;;;;;;5091866;28;20199;-67
2023/05/07 02:55:39;;;;;;;1.95;0.82;;;;;;;;;;5092886;28;20203;-67
2023/05/07 02:58:06;;;;;;;1.67;1.10;;;;;;;;;;5090347;28;20252;-69
2023/05/07 03:00:36;;;;;;;1.23;1.08;;;;;;;;;;5089750;28;20579;-67
2023/05/07 03:03:21;;;;;;;1.00;0.90;;;;;;;;;;5089825;28;20205;-69
2023/05/07 03:05:49;;;;;;;1.60;1.13;;;;;;;;;;5089743;28;20195;-67
2023/05/07 03:08:16;;;;;;;1.63;0.98;;;;;;;;;;5090981;28;20210;-66
2023/05/07 03:10:44;;;;;;;1.67;1.10;;;;;;;;;;5091035;28;20199;-66
2023/05/07 03:13:11;;;;;;;1.58;1.15;;;;;;;;;;5089656;28;20199;-68
2023/05/07 03:15:39;;;;;;;1.90;1.40;;;;;;;;;;5090485;28;20230;-67
2023/05/07 03:18:06;;;;;;;1.20;1.00;;;;;;;;;;5092724;28;20233;-69
2023/05/07 03:20:34;;;;;;;1.00;0.93;;;;;;;;;;5091798;28;20593;-67
2023/05/07 03:23:01;;;;;;;1.07;0.93;;;;;;;;;;5095213;28;20217;-69
2023/05/07 03:25:29;;;;;;;1.30;1.20;;;;;;;;;;5095130;28;20198;-67
2023/05/07 03:27:57;;;;;;;1.08;0.98;;;;;;;;;;5096284;28;20590;-69
2023/05/07 03:30:31;;;;;;;1.57;1.20;;;;;;;;;;5095764;28;20202;-68
2023/05/07 03:32:58;;;;;;;1.77;1.20;;;;;;;;;;5095240;28;20674;-68
2023/05/07 03:35:26;;;;;;;3.20;1.13;;;;;;;;;;5095213;28;20655;-67
2023/05/07 03:37:53;;;;;;;1.13;1.03;;;;;;;;;;5095186;28;20268;-65
2023/05/07 03:40:21;;;;;;;1.83;1.23;;;;;;;;;;5095105;28;20251;-67
2023/05/07 03:42:52;;;;;;;1.10;1.00;;;;;;;;;;5095085;28;20639;-67
2023/05/07 03:45:22;;;;;;;1.00;0.90;;;;;;;;;;5079071;28;20222;-66
2023/05/07 03:47:58;;;;;;;3.70;1.17;;;;;;;;;;5095178;28;20191;-67
2023/05/07 03:50:26;;;;;;;1.13;1.03;;;;;;;;;;5095042;28;20214;-68
2023/05/07 03:52:53;;;;;;;0.97;0.90;;;;;;;;;;5096316;28;20209;-67
2023/05/07 03:55:22;;;;;;;1.73;1.20;;;;;;;;;;5095085;28;20667;-69
2023/05/07 03:57:56;;;;;;;2.33;1.03;;;;;;;;;;5094941;28;20203;-69
2023/05/07 04:00:26;;;;;;;1.30;1.20;;;;;;;;;;5094745;28;20690;-68
2023/05/07 04:02:56;;;;;;;1.83;1.30;;;;;;;;;;5094895;28;20283;-66
2023/05/07 04:05:26;;;;;;;2.43;1.50;;;;;;;;;;5096086;28;20218;-67
2023/05/07 04:07:58;;;;;;;2.47;1.60;;;;;;;;;;5094744;28;20195;-68
2023/05/07 04:10:33;;;;;;;2.07;1.50;;;;;;;;;;5095230;28;20206;-68
2023/05/07 04:13:04;;;;;;;1.70;1.10;;;;;;;;;;5094712;28;20610;-69
2023/05/07 04:15:32;;;;;;;3.07;1.47;;;;;;;;;;5094390;28;20225;-68
2023/05/07 04:17:59;;;;;;;1.50;1.30;;;;;;;;;;5094691;28;20588;-67
2023/05/07 04:20:27;;;;;;;1.80;1.53;;;;;;;;;;5094512;28;20231;-68
2023/05/07 04:23:00;;;;;;;1.40;1.10;;;;;;;;;;5094501;28;20199;-66
2023/05/07 04:25:28;;;;;;;1.80;1.40;;;;;;;;;;5094466;28;20199;-70
2023/05/07 04:28:02;;;;;;;1.20;1.10;;;;;;;;;;5093936;28;20658;-66
2023/05/07 04:30:30;;;;;;;1.23;0.97;;;;;;;;;;5094466;28;20215;-70
2023/05/07 04:32:57;;;;;;;1.53;1.30;;;;;;;;;;5089889;28;20195;-66
2023/05/07 04:35:27;;;;;;;2.10;1.50;;;;;;;;;;5083595;28;20679;-69
2023/05/07 04:37:54;;;;;;;1.40;1.00;;;;;;;;;;5074258;28;20207;-67
2023/05/07 04:40:22;;;;;;;1.17;1.03;;;;;;;;;;5074917;28;20285;-69
2023/05/07 04:42:49;;;;;;;1.58;1.30;;;;;;;;;;5073671;28;20706;-69
2023/05/07 04:45:16;;;;;;;2.03;1.87;;;;;;;;;;5075065;28;20199;-67
2023/05/07 04:47:45;;;;;;;1.63;1.33;;;;;;;;;;5073856;28;20203;-67
2023/05/07 04:50:13;;;;;;;1.35;1.25;;;;;;;;;;5073529;28;20664;-67
2023/05/07 04:52:41;;;;;;;1.50;1.30;;;;;;;;;;5073482;28;20199;-69
2023/05/07 04:55:09;;;;;;;1.60;1.50;;;;;;;;;;5073434;28;20661;-70
2023/05/07 04:57:40;;;;;;;2.17;1.27;;;;;;;;;;5073822;28;20203;-69
2023/05/07 05:00:10;;;;;;;1.40;1.00;;;;;;;;;;5073214;28;20215;-62
2023/05/07 05:02:39;;;;;;;1.80;1.40;;;;;;;;;;5073764;28;20210;-70
2023/05/07 05:05:07;;;;;;;1.40;1.23;;;;;;;;;;5073555;28;20635;-70
2023/05/07 05:07:34;;;;;;;1.53;1.03;;;;;;;;;;5073185;28;20207;-70
2023/05/07 05:10:03;;;;;;;2.63;1.50;;;;;;;;;;5073280;28;20237;-68
2023/05/07 05:12:33;;;;;;;1.23;1.07;;;;;;;;;;5073416;28;20207;-70
2023/05/07 05:15:01;;;;;;;1.03;0.93;;;;;;;;;;5072908;28;20210;-69
2023/05/07 05:17:28;;;;;;;1.50;1.40;;;;;;;;;;5107071;28;20286;-71
2023/05/07 05:19:56;;;;;;;1.13;1.00;;;;;;;;;;5073221;28;20218;-70
2023/05/07 05:22:23;;;;;;;1.17;1.08;;;;;;;;;;5106856;28;20290;-70
2023/05/07 05:24:51;;;;;;;1.50;1.40;;;;;;;;;;5106954;28;20207;-70
2023/05/07 05:27:18;;;;;;;1.27;1.00;;;;;;;;;;5072952;28;20206;-71
2023/05/07 05:29:45;;;;;;;1.40;1.00;;;;;;;;;;5073103;28;20215;-69
2023/05/07 05:32:13;;;;;;;1.03;0.93;;;;;;;;;;5072711;28;20738;-68
2023/05/07 05:34:40;;;;;;;1.80;1.30;;;;;;;;;;5072602;28;20222;-71
2023/05/07 05:37:07;;;;;;;1.75;1.27;;;;;;;;;;5073655;28;20226;-67
2023/05/07 05:39:34;;;;;;;1.53;1.10;;;;;;;;;;5072737;28;20242;-71
2023/05/07 05:42:02;;;;;;;2.60;1.20;;;;;;;;;;5072770;28;20286;-69
2023/05/07 05:44:30;;;;;;;1.30;1.03;;;;;;;;;;5076387;28;20195;-70
2023/05/07 05:46:59;;;;;;;1.60;1.30;;;;;;;;;;5087121;28;20202;-71
2023/05/07 05:49:26;;;;;;;1.23;1.00;;;;;;;;;;5089469;28;20202;-70
2023/05/07 05:51:55;;;;;;;1.33;1.23;;;;;;;;;;5091329;28;20203;-70
2023/05/07 05:54:24;;;;;;;1.08;0.98;;;;;;;;;;5091281;28;20510;-71
2023/05/07 05:56:52;;;;;;;1.80;1.20;;;;;;;;;;5090813;28;20256;-72
2023/05/07 05:59:19;;;;;;;2.03;1.20;;;;;;;;;;5089138;28;20309;-68
2023/05/07 06:01:47;;;;;;;1.23;1.13;;;;;;;;;;5088646;28;20203;-64
2023/05/07 06:04:14;;;;;;;1.40;1.17;;;;;;;;;;5089773;28;20202;-70
2023/05/07 06:06:41;;;;;;;1.48;1.20;;;;;;;;;;5093683;28;20203;-69
2023/05/07 06:09:09;;;;;;;1.27;1.17;;;;;;;;;;5092511;28;20674;-70
2023/05/07 06:11:41;;;;;;;2.33;1.27;;;;;;;;;;5092918;28;20203;-69
2023/05/07 06:14:09;;;;;;;1.20;1.00;;;;;;;;;;5085605;28;20263;-68
2023/05/07 06:16:37;;;;;;;1.75;0.98;;;;;;;;;;5091069;28;20191;-70
2023/05/07 06:19:06;;;;;;;1.27;0.95;;;;;;;;;;5080636;28;20214;-69
2023/05/07 06:21:34;;;;;;;1.30;1.03;;;;;;;;;;5090640;28;20598;-69
2023/05/07 06:24:01;;;;;;;2.20;1.20;;;;;;;;;;5090413;28;20776;-62
2023/05/07 06:26:29;;;;;;;1.53;1.10;;;;;;;;;;5089090;28;20248;-70
2023/05/07 06:28:56;;;;;;;1.40;1.03;;;;;;;;;;5087122;28;20214;-66
2023/05/07 06:31:29;;;;;;;1.13;1.03;;;;;;;;;;5082657;28;20206;-69
2023/05/07 06:34:02;;;;;;;1.30;1.20;;;;;;;;;;5072561;28;20347;-66
2023/05/07 06:36:36;;;;;;;1.90;1.10;;;;;;;;;;5072005;28;20791;-68
2023/05/07 06:39:11;;;;;;;1.57;1.07;;;;;;;;;;5072426;28;20314;-67
2023/05/07 06:41:39;;;;;;;1.13;1.00;;;;;;;;;;5071712;28;20260;-65
2023/05/07 06:44:15;;;;;;;1.50;1.03;;;;;;;;;;5071568;28;20682;-67
2023/05/07 06:46:47;;;;;;;1.17;1.07;;;;;;;;;;5071464;28;20233;-68
2023/05/07 06:49:14;;;;;;;1.93;0.90;;;;;;;;;;5072210;28;20222;-64
2023/05/07 06:51:42;;;;;;;1.33;1.10;;;;;;;;;;5068449;28;20233;-65
2023/05/07 06:54:09;;;;;;;1.70;1.10;;;;;;;;;;5087348;28;20310;-69
2023/05/07 06:56:38;;;;;;;1.20;0.90;;;;;;;;;;5074203;28;20214;-69
2023/05/07 06:59:06;;;;;;;2.03;1.20;;;;;;;;;;5092137;28;20756;-71
2023/05/07 07:01:38;;;;;;;1.33;1.23;;;;;;;;;;5088423;28;20227;-71
2023/05/07 07:04:06;;;;;;;1.73;1.27;;;;;;;;;;5090873;28;20699;-70
2023/05/07 07:06:34;;;;;;;1.30;1.20;;;;;;;;;;5092379;28;20218;-70
2023/05/07 07:09:04;;;;;;;1.53;1.07;;;;;;;;;;5090900;28;20246;-68
2023/05/07 07:11:32;;;;;;;1.83;1.30;;;;;;;;;;5093375;28;20707;-71
2023/05/07 07:13:59;;;;;;;1.47;1.10;;;;;;;;;;5093400;28;20260;-70
2023/05/07 07:16:28;;;;;;;1.83;1.20;;;;;;;;;;5090104;28;20222;-71
2023/05/07 07:18:56;;;;;;;2.40;1.17;;;;;;;;;;5088832;28;20279;-66
2023/05/07 07:21:23;;;;;;;2.07;1.43;;;;;;;;;;5092222;28;20237;-69
2023/05/07 07:23:52;;;;;;;1.40;1.20;;;;;;;;;;5090868;28;20222;-66
2023/05/07 07:26:20;;;;;;;1.33;1.23;;;;;;;;;;5074397;28;20227;-69
2023/05/07 07:28:48;;;;;;;4.23;1.10;;;;;;;;;;5092453;28;20225;-66
2023/05/07 07:31:19;;;;;;;2.40;1.27;;;;;;;;;;5088669;28;20214;-70
2023/05/07 07:33:50;;;;;;;1.67;1.07;;;;;;;;;;5090728;28;20576;-70
2023/05/07 07:36:19;;;;;;;1.30;1.20;;;;;;;;;;5090745;28;20207;-67
2023/05/07 07:38:50;;;;;;;1.60;1.27;;;;;;;;;;5094082;28;20272;-71
2023/05/07 07:41:17;;;;;;;3.00;1.17;;;;;;;;;;5090076;28;20256;-68
2023/05/07 07:43:46;;;;;;;1.77;1.30;;;;;;;;;;5094842;28;20218;-71
2023/05/07 07:46:17;;;;;;;1.03;1.00;;;;;;;;;;5093111;28;20768;-72
2023/05/07 07:48:44;;;;;;;1.00;0.90;;;;;;;;;;5093581;28;20301;-70
2023/05/07 07:51:12;;;;;;;0.80;0.80;;;;;;;;;;5093592;28;20210;-70
2023/05/07 07:53:40;;;;;;;0.90;0.90;;;;;;;;;;5092518;28;20248;-70
2023/05/07 07:56:08;;;;;;;1.37;1.13;;;;;;;;;;5094394;28;20215;-69
2023/05/07 07:58:36;;;;;;;1.13;1.00;;;;;;;;;;5093287;28;20533;-72
2023/05/07 08:01:04;;;;;;;2.00;0.90;;;;;;;;;;5093135;28;20230;-68
2023/05/07 08:03:32;;;;;;;1.30;1.20;;;;;;;;;;5093130;28;20215;-70
2023/05/07 08:06:01;;;;;;;2.78;1.20;;;;;;;;;;5077843;28;20226;-71
2023/05/07 08:08:30;;;;;;;1.80;1.10;;;;;;;;;;5093357;28;20219;-70
2023/05/07 08:10:57;;;;;;;1.63;1.37;;;;;;;;;;5094053;28;20215;-68
2023/05/07 08:13:30;;;;;;;1.57;0.83;;;;;;;;;;5093250;27;20225;-68
2023/05/07 08:15:58;;;;;;;0.97;0.90;;;;;;;;;;5095005;28;20237;-68
2023/05/07 08:18:26;;;;;;;0.80;0.80;;;;;;;;;;5093173;28;20242;-70
2023/05/07 08:20:53;;;;;;;2.93;1.20;;;;;;;;;;5093604;28;20718;-69
2023/05/07 08:23:23;;;;;;;2.00;1.00;;;;;;;;;;5092717;28;20227;-67
2023/05/07 08:25:51;;;;;;;1.20;1.10;;;;;;;;;;5093585;28;20226;-68
2023/05/07 08:28:19;;;;;;;1.50;1.25;;;;;;;;;;5093653;28;20276;-65
2023/05/07 08:30:47;;;;;;;1.20;1.10;;;;;;;;;;5093080;28;20222;-69
2023/05/07 08:33:15;;;;;;;1.47;0.83;;;;;;;;;;5093145;28;20260;-66
2023/05/07 08:35:42;;;;;;;0.63;0.60;;;;;;;;;;5094455;28;20350;-68
2023/05/07 08:38:12;;;;;;;1.53;1.00;;;;;;;;;;5090518;28;20211;-70
2023/05/07 08:40:43;;;;;;;1.40;1.10;;;;;;;;;;5091217;28;20238;-68
2023/05/07 08:43:16;;;;;;;1.03;0.83;;;;;;;;;;5090636;28;20309;-67
2023/05/07 08:45:45;;;;;;;1.30;1.00;;;;;;;;;;5076126;28;20584;-70
2023/05/07 08:48:15;;;;;;;0.75;0.75;;;;;;;;;;5073338;28;20230;-70
2023/05/07 08:50:47;;;;;;;1.37;1.10;;;;;;;;;;5092585;28;20230;-70
2023/05/07 08:53:16;;;;;;;1.10;1.00;;;;;;;;;;5092120;28;20214;-62
2023/05/07 08:55:45;;;;;;;1.08;0.90;;;;;;;;;;5076077;28;20226;-67
2023/05/07 08:58:12;;;;;;;1.17;0.87;;;;;;;;;;5093412;28;20228;-71
2023/05/07 09:00:40;;;;;;;1.60;1.30;;;;;;;;;;5090179;28;20233;-72
2023/05/07 09:03:07;;;;;;;1.50;0.80;;;;;;;;;;5075538;28;20723;-70
2023/05/07 09:05:36;;;;;;;0.70;0.60;;;;;;;;;;5091713;28;20723;-71
2023/05/07 09:08:07;;;;;;;1.40;1.17;;;;;;;;;;5093254;28;20284;-68
2023/05/07 09:10:36;;;;;;;1.52;1.33;;;;;;;;;;5092346;28;20219;-70
2023/05/07 09:13:04;;;;;;;1.05;0.95;;;;;;;;;;5092480;28;20222;-70
2023/05/07 09:15:31;;;;;;;1.13;1.03;;;;;;;;;;5091626;28;20686;-69
2023/05/07 09:18:01;;;;;;;0.90;0.90;;;;;;;;;;5091502;28;20250;-69
2023/05/07 09:20:32;;;;;;;1.63;0.90;;;;;;;;;;5092347;28;20230;-69
2023/05/07 09:23:01;;;;;;;2.25;1.10;;;;;;;;;;5089833;28;20211;-66
2023/05/07 09:25:31;;;;;;;1.08;0.90;;;;;;;;;;5091653;28;20222;-67
2023/05/07 09:28:04;;;;;;;3.50;2.67;;;;;;;;;;5090142;28;20682;-68
2023/05/07 09:30:31;;;;;;;1.25;1.00;;;;;;;;;;5092566;28;20643;-65
2023/05/07 09:33:02;;;;;;;1.08;0.95;;;;;;;;;;5090911;28;20206;-69
2023/05/07 09:35:30;;;;;;;2.38;0.98;;;;;;;;;;5089552;28;20191;-63
2023/05/07 09:38:04;;;;;;;0.88;0.82;;;;;;;;;;5090884;28;20248;-63
2023/05/07 09:40:35;;;;;;;2.35;1.02;;;;;;;;;;5090873;28;20238;-60
2023/05/07 09:43:11;;;;;;;0.77;0.77;;;;;;;;;;5089931;28;20659;-63
2023/05/07 09:45:43;;;;;;;1.20;0.95;;;;;;;;;;5090749;28;20202;-63
2023/05/07 09:48:12;;;;;;;1.60;1.00;;;;;;;;;;5089304;28;20636;-62
2023/05/07 09:50:48;;;;;;;1.92;1.17;;;;;;;;;;5073154;28;20735;-67
2023/05/07 09:53:17;;;;;;;1.30;0.82;;;;;;;;;;5091293;28;20206;-63
2023/05/07 09:55:45;;;;;;;1.55;1.10;;;;;;;;;;5092259;28;20260;-66
2023/05/07 09:58:12;;;;;;;0.85;0.80;;;;;;;;;;5075928;28;20199;-66
2023/05/07 10:00:41;;;;;;;0.80;0.80;;;;;;;;;;5076269;28;20222;-64
2023/05/07 10:03:13;;;;;;;1.35;0.80;;;;;;;;;;5092741;28;20202;-66
2023/05/07 10:05:52;;;;;;;1.52;1.20;;;;;;;;;;5077257;28;20667;-65
2023/05/07 10:08:20;;;;;;;1.17;1.00;;;;;;;;;;5075953;28;20203;-65
2023/05/07 10:10:50;;;;;;;10.88;4.57;;;;;;;;;;5076409;28;20720;-64
2023/05/07 10:13:21;;;;;;;1.35;0.85;;;;;;;;;;5076614;28;20190;-64
2023/05/07 10:15:53;;;;;;;1.08;0.98;;;;;;;;;;5092799;28;20564;-62
2023/05/07 10:18:29;;;;;;;1.95;1.17;;;;;;;;;;5092255;28;20209;-62
2023/05/07 10:21:08;;;;;;;1.20;0.90;;;;;;;;;;5092635;28;20230;-61
2023/05/07 10:23:35;;;;;;;1.10;0.90;;;;;;;;;;5092552;28;20198;-65
2023/05/07 10:26:04;;;;;;;1.00;0.80;;;;;;;;;;5090761;28;20206;-66
2023/05/07 10:28:41;;;;;;;1.42;1.10;;;;;;;;;;5082361;28;20203;-67
2023/05/07 10:31:25;;;;;;;2.05;1.38;;;;;;;;;;5092887;28;20191;-65
2023/05/07 10:33:54;;;;;;;3.90;2.22;;;;;;;;;;5076439;28;20203;-67
2023/05/07 10:36:23;;;;;;;1.50;1.08;;;;;;;;;;5076533;28;20199;-66
2023/05/07 10:38:52;;;;;;;2.10;1.08;;;;;;;;;;5059817;28;20207;-65
2023/05/07 10:41:20;;;;;;;2.67;1.23;;;;;;;;;;5059655;28;20691;-67
2023/05/07 10:43:49;;;;;;;2.72;1.50;;;;;;;;;;5076197;28;20206;-68
2023/05/07 10:46:22;;;;;;;1.50;0.77;;;;;;;;;;5076300;28;20612;-65
2023/05/07 10:49:00;;;;;;;1.13;1.02;;;;;;;;;;5060700;28;20297;-67
2023/05/07 10:51:34;;;;;;;1.30;1.00;;;;;;;;;;5076157;28;20558;-64
2023/05/07 10:54:19;;;;;;;1.25;1.00;;;;;;;;;;5075973;28;20567;-64
2023/05/07 10:57:37;;;;;;;1.55;1.00;;;;;;;;;;5061453;28;20192;-67
2023/05/07 11:00:23;;;;;;;1.23;0.88;;;;;;;;;;5085884;28;20207;-68
2023/05/07 11:03:08;;;;;;;1.77;1.00;;;;;;;;;;5089820;28;20222;-69
2023/05/07 11:06:09;;;;;;;1.48;1.23;;;;;;;;;;5088084;28;20229;-66
2023/05/07 11:09:00;;;;;;;0.98;0.85;;;;;;;;;;5092647;28;20214;-72
2023/05/07 11:11:55;;;;;;;1.10;0.80;;;;;;;;;;5094383;28;20219;-73
2023/05/07 11:14:53;;;;;;;1.33;0.90;;;;;;;;;;5072698;28;20597;-71
2023/05/07 11:17:34;;;;;;;1.73;1.17;;;;;;;;;;5052147;28;20219;-70
2023/05/07 11:20:07;;;;;;;0.80;0.80;;;;;;;;;;5052581;28;20232;-69
2023/05/07 11:22:43;;;;;;;0.85;0.85;;;;;;;;;;5065760;28;20224;-70
2023/05/07 11:25:19;;;;;;;2.03;1.20;;;;;;;;;;5070079;28;20219;-72
2023/05/07 11:27:52;;;;;;;1.70;1.00;;;;;;;;;;5056596;28;20226;-71
2023/05/07 11:30:19;;;;;;;1.40;0.90;;;;;;;;;;5072791;28;20774;-72
2023/05/07 11:32:48;;;;;;;1.45;1.35;;;;;;;;;;5055147;28;20223;-72
2023/05/07 11:35:17;;;;;;;2.58;0.93;;;;;;;;;;5053768;28;20222;-73
2023/05/07 11:37:46;;;;;;;1.38;0.93;;;;;;;;;;5056522;28;20329;-72
2023/05/07 11:40:15;;;;;;;2.17;1.15;;;;;;;;;;5039313;28;20266;-66
2023/05/07 11:42:42;;;;;;;0.85;0.82;;;;;;;;;;5055809;28;20216;-71
2023/05/07 11:45:10;;;;;;;1.13;1.02;;;;;;;;;;5072805;28;20615;-66
2023/05/07 11:47:38;;;;;;;1.20;0.90;;;;;;;;;;5072852;28;20223;-65
2023/05/07 11:50:10;;;;;;;1.70;0.80;;;;;;;;;;5075645;28;20227;-65
2023/05/07 11:52:39;;;;;;;0.93;0.90;;;;;;;;;;5095254;28;20222;-72
2023/05/07 11:55:07;;;;;;;0.98;0.90;;;;;;;;;;5094666;28;20214;-70
2023/05/07 11:57:35;;;;;;;0.80;0.80;;;;;;;;;;5095080;28;20222;-66
2023/05/07 12:00:04;;;;;;;1.20;1.10;;;;;;;;;;5094626;28;20225;-67
2023/05/07 12:02:41;;;;;;;0.82;0.80;;;;;;;;;;5095488;28;20238;-67
2023/05/07 12:05:09;;;;;;;1.10;0.95;;;;;;;;;;5095384;28;20223;-72
2023/05/07 12:07:37;;;;;;;1.10;1.00;;;;;;;;;;5095155;28;20226;-73
2023/05/07 12:10:07;;;;;;;0.73;0.70;;;;;;;;;;5094380;28;20711;-66
2023/05/07 12:12:43;;;;;;;1.10;0.77;;;;;;;;;;5094621;27;20313;-68
2023/05/07 12:15:15;;;;;;;1.10;1.00;;;;;;;;;;5094234;28;20237;-70
2023/05/07 12:17:43;;;;;;;0.98;0.73;;;;;;;;;;5095133;28;20293;-69
2023/05/07 12:20:10;;;;;;;1.13;0.90;;;;;;;;;;5088654;28;20276;-70
2023/05/07 12:22:38;;;;;;;1.13;1.02;;;;;;;;;;5093092;28;20649;-70
2023/05/07 12:25:06;;;;;;;0.90;0.70;;;;;;;;;;5094882;28;20223;-68
2023/05/07 12:27:36;;;;;;;1.17;0.98;;;;;;;;;;5094678;28;20776;-74
2023/05/07 12:30:04;;;;;;;1.17;0.70;;;;;;;;;;5094572;28;20226;-73
2023/05/07 12:32:36;;;;;;;2.92;1.00;;;;;;;;;;5095001;28;20241;-74
2023/05/07 12:35:06;;;;;;;0.80;0.80;;;;;;;;;;5094976;28;20225;-74
2023/05/07 12:37:59;;;;;;;0.93;0.88;;;;;;;;;;5089880;28;20221;-68
2023/05/07 12:40:36;;;;;;;1.15;0.73;;;;;;;;;;5092816;28;20235;-72
2023/05/07 12:43:03;;;;;;;1.00;0.80;;;;;;;;;;5094633;28;20317;-72
2023/05/07 12:45:31;;;;;;;1.95;1.00;;;;;;;;;;5093971;28;20577;-74
2023/05/07 12:48:01;;;;;;;1.20;0.82;;;;;;;;;;5093968;28;20264;-69
2023/05/07 12:50:35;;;;;;;1.00;0.90;;;;;;;;;;5094034;28;20702;-71
2023/05/07 12:53:06;;;;;;;1.23;0.95;;;;;;;;;;5093760;28;20230;-73
2023/05/07 12:55:48;;;;;;;1.00;0.90;;;;;;;;;;5094357;28;20230;-71
2023/05/07 12:58:19;;;;;;;0.85;0.70;;;;;;;;;;5094302;28;20226;-74
2023/05/07 13:00:50;;;;;;;1.63;0.98;;;;;;;;;;5093787;28;20272;-68
2023/05/07 13:03:25;;;;;;;1.00;0.90;;;;;;;;;;5094267;28;20237;-74
2023/05/07 13:05:55;;;;;;;1.08;0.82;;;;;;;;;;5093873;28;20694;-70
2023/05/07 13:08:26;;;;;;;1.10;0.95;;;;;;;;;;5094389;28;20687;-68
2023/05/07 13:10:54;;;;;;;1.30;0.90;;;;;;;;;;5094082;28;20629;-70
2023/05/07 13:13:21;;;;;;;1.85;0.82;;;;;;;;;;5092080;28;20218;-60
2023/05/07 13:15:49;;;;;;;0.93;0.85;;;;;;;;;;5090107;28;20218;-61
2023/05/07 13:18:17;;;;;;;1.17;1.08;;;;;;;;;;5092745;28;20210;-60
2023/05/07 13:20:44;;;;;;;0.98;0.77;;;;;;;;;;5093175;28;20221;-60
2023/05/07 13:23:11;;;;;;;1.48;1.20;;;;;;;;;;5092635;28;20219;-61
2023/05/07 13:25:38;;;;;;;4.90;2.88;;;;;;;;;;5092923;28;20219;-62
2023/05/07 13:28:05;;;;;;;1.20;0.90;;;;;;;;;;5093188;28;20218;-61
2023/05/07 13:30:37;;;;;;;0.98;0.90;;;;;;;;;;5092579;28;20221;-60
2023/05/07 13:33:04;;;;;;;1.60;1.00;;;;;;;;;;5092162;28;20313;-61
2023/05/07 13:35:32;;;;;;;0.60;0.60;;;;;;;;;;5091294;27;20231;-62
2023/05/07 13:37:59;;;;;;;0.90;0.90;;;;;;;;;;5087615;28;20214;-59
2023/05/07 13:40:27;;;;;;;2.13;1.20;;;;;;;;;;5091369;28;20227;-60
2023/05/07 13:42:58;;;;;;;1.85;1.15;;;;;;;;;;5092367;28;20308;-59
2023/05/07 13:45:26;;;;;;;1.02;0.93;;;;;;;;;;5092194;28;20218;-59
2023/05/07 13:47:53;;;;;;;0.95;0.80;;;;;;;;;;5092009;28;20224;-60
2023/05/07 13:50:21;;;;;;;1.38;1.00;;;;;;;;;;5092075;28;20264;-60
2023/05/07 13:52:50;;;;;;;1.15;0.82;;;;;;;;;;5089340;28;20222;-59
2023/05/07 13:55:19;;;;;;;0.88;0.80;;;;;;;;;;5090317;28;20226;-59
2023/05/07 13:57:46;;;;;;;0.77;0.70;;;;;;;;;;5090326;28;20231;-59
2023/05/07 14:00:16;;;;;;;0.65;0.57;;;;;;;;;;5089699;28;20226;-60
2023/05/07 14:02:43;;;;;;;0.80;0.70;;;;;;;;;;5093383;28;20238;-58
2023/05/07 14:05:11;;;;;;;0.70;0.70;;;;;;;;;;5092525;28;20717;-58
2023/05/07 14:07:37;;;;;;;1.98;1.00;;;;;;;;;;5093482;28;20615;-59
2023/05/07 14:10:05;;;;;;;0.80;0.77;;;;;;;;;;5092525;28;20218;-58
2023/05/07 14:12:33;;;;;;;2.08;1.05;;;;;;;;;;5092741;28;20222;-59
2023/05/07 14:15:00;;;;;;;0.75;0.70;;;;;;;;;;5092163;28;20218;-59
2023/05/07 14:17:27;;;;;;;0.93;0.82;;;;;;;;;;5092813;28;20703;-60
2023/05/07 14:19:55;;;;;;;1.23;0.95;;;;;;;;;;5090424;28;20234;-59
2023/05/07 14:22:22;;;;;;;1.38;1.00;;;;;;;;;;5092801;28;20313;-59
2023/05/07 14:24:50;;;;;;;1.05;0.80;;;;;;;;;;5109971;28;20232;-58
2023/05/07 14:27:32;;;;;;;1.23;1.00;;;;;;;;;;5093141;28;20227;-58
2023/05/07 14:29:59;;;;;;;1.67;0.82;;;;;;;;;;5092963;28;20187;-58
2023/05/07 14:32:26;;;;;;;2.33;0.80;;;;;;;;;;5093032;28;20663;-57
2023/05/07 14:34:54;;;;;;;0.95;0.75;;;;;;;;;;5093111;28;20210;-59
2023/05/07 14:37:21;;;;;;;0.88;0.82;;;;;;;;;;5093477;28;20202;-59
2023/05/07 14:39:48;;;;;;;1.45;0.98;;;;;;;;;;5086857;28;20257;-59
2023/05/07 14:42:17;;;;;;;1.10;0.77;;;;;;;;;;5091309;28;20687;-59
2023/05/07 14:44:46;;;;;;;0.82;0.70;;;;;;;;;;5091615;28;20260;-58
2023/05/07 14:47:13;;;;;;;1.38;1.00;;;;;;;;;;5093523;28;20578;-59
2023/05/07 14:49:42;;;;;;;0.85;0.60;;;;;;;;;;5092803;28;20294;-58
2023/05/07 14:52:09;;;;;;;0.63;0.63;;;;;;;;;;5092928;28;20306;-58
2023/05/07 14:54:37;;;;;;;0.90;0.80;;;;;;;;;;5092908;28;20663;-58
2023/05/07 14:57:06;;;;;;;2.95;1.63;;;;;;;;;;5089261;28;20199;-59
2023/05/07 14:59:33;;;;;;;3.08;1.23;;;;;;;;;;5088169;28;20226;-57